Time;durP1;ratioP1;P1;durP2;ratioP2;P2;SDS_P1;SDS_P2;PMS_P1;PMS_P2;Temp;Humidity;BMP_temperature;BMP_pressure;BME280_temperature;BME280_humidity;BME280_pressure;Samples;Min_cycle;Max_cycle;Signal;HPM_P1;HPM_P2
2021/11/04 00:00:28;;;;;;;42.43;27.27;;;8.20;99.90;;;;;;4951102;29;20447;-71
2021/11/04 00:02:55;;;;;;;42.10;28.07;;;8.30;99.90;;;;;;4958630;28;20432;-69
2021/11/04 00:05:22;;;;;;;41.27;25.30;;;8.30;99.90;;;;;;4975296;28;20417;-70
2021/11/04 00:07:50;;;;;;;37.63;23.80;;;8.30;99.90;;;;;;4975722;28;20448;-69
2021/11/04 00:10:16;;;;;;;39.23;25.70;;;8.40;99.90;;;;;;4975504;28;20516;-70
2021/11/04 00:12:42;;;;;;;38.53;24.90;;;8.40;99.90;;;;;;4975154;28;20446;-70
2021/11/04 00:15:08;;;;;;;44.43;27.30;;;8.50;99.90;;;;;;4956243;29;20292;-71
2021/11/04 00:17:33;;;;;;;39.47;24.20;;;8.50;99.90;;;;;;4950995;29;20196;-71
2021/11/04 00:19:59;;;;;;;39.80;25.43;;;8.50;99.90;;;;;;4950855;29;20487;-71
2021/11/04 00:22:25;;;;;;;41.27;25.73;;;8.50;99.90;;;;;;4952663;28;20429;-71
2021/11/04 00:24:51;;;;;;;38.83;25.93;;;8.60;99.90;;;;;;4966183;28;20435;-71
2021/11/04 00:27:17;;;;;;;38.67;25.40;;;8.40;99.90;;;;;;4969554;28;20197;-70
2021/11/04 00:29:42;;;;;;;41.60;25.37;;;8.50;99.90;;;;;;4950692;29;20416;-71
2021/11/04 00:32:08;;;;;;;40.27;25.83;;;8.50;99.90;;;;;;4950661;29;20587;-71
2021/11/04 00:34:34;;;;;;;39.73;25.27;;;8.40;99.90;;;;;;4950281;29;20209;-70
2021/11/04 00:36:59;;;;;;;42.77;27.43;;;8.40;99.90;;;;;;4950071;29;20280;-70
2021/11/04 00:39:25;;;;;;;45.17;26.47;;;8.50;99.90;;;;;;4950191;29;20261;-71
2021/11/04 00:41:50;;;;;;;39.83;26.37;;;8.60;99.90;;;;;;4950076;29;20615;-71
2021/11/04 00:44:16;;;;;;;41.97;28.00;;;8.70;99.90;;;;;;4950153;29;20608;-71
2021/11/04 00:46:42;;;;;;;39.87;26.17;;;8.70;99.90;;;;;;4949713;29;20225;-72
2021/11/04 00:49:08;;;;;;;41.43;25.50;;;8.70;99.90;;;;;;4950053;29;20489;-71
2021/11/04 00:51:33;;;;;;;39.40;26.40;;;8.80;99.90;;;;;;4949013;29;20177;-71
2021/11/04 00:53:59;;;;;;;41.33;25.63;;;8.90;99.90;;;;;;4949981;29;20685;-71
2021/11/04 00:56:25;;;;;;;44.17;27.10;;;8.90;99.90;;;;;;4949646;29;20700;-72
2021/11/04 00:58:51;;;;;;;41.00;27.63;;;8.90;99.90;;;;;;4953054;29;20187;-71
2021/11/04 01:01:21;;;;;;;40.23;25.43;;;9.00;99.90;;;;;;4952975;29;20413;-71
2021/11/04 01:03:47;;;;;;;39.90;25.73;;;8.90;99.90;;;;;;4953292;29;20155;-71
2021/11/04 01:06:13;;;;;;;41.00;25.70;;;9.00;99.90;;;;;;4952749;29;20445;-71
2021/11/04 01:08:39;;;;;;;40.97;26.07;;;9.00;99.90;;;;;;4953082;29;20482;-71
2021/11/04 01:11:06;;;;;;;42.60;26.17;;;9.00;99.90;;;;;;4953139;28;20440;-70
2021/11/04 01:13:32;;;;;;;45.60;26.17;;;8.80;99.90;;;;;;4952782;29;20177;-71
2021/11/04 01:15:58;;;;;;;41.97;25.77;;;8.60;99.90;;;;;;4952027;29;21209;-71
2021/11/04 01:18:23;;;;;;;45.40;28.63;;;8.40;99.90;;;;;;4952968;29;20525;-71
2021/11/04 01:20:49;;;;;;;47.70;26.13;;;8.30;99.90;;;;;;4952848;29;20253;-70
2021/11/04 01:23:15;;;;;;;48.50;29.10;;;8.20;99.90;;;;;;4952943;29;20252;-70
2021/11/04 01:25:40;;;;;;;41.00;27.03;;;8.10;99.90;;;;;;4952249;29;20289;-71
2021/11/04 01:28:08;;;;;;;47.10;27.53;;;8.10;99.90;;;;;;4952761;29;20419;-70
2021/11/04 01:30:38;;;;;;;46.67;26.87;;;8.10;99.90;;;;;;4953000;29;20256;-70
2021/11/04 01:33:04;;;;;;;45.70;26.60;;;8.10;99.90;;;;;;4962853;28;20436;-70
2021/11/04 01:35:33;;;;;;;50.40;28.00;;;8.10;99.90;;;;;;4971126;28;20833;-71
2021/11/04 01:38:00;;;;;;;48.73;25.90;;;8.10;99.90;;;;;;4966123;28;20429;-70
2021/11/04 01:40:25;;;;;;;46.13;27.63;;;8.20;99.90;;;;;;4952659;29;20401;-70
2021/11/04 01:42:51;;;;;;;42.63;27.07;;;8.20;99.90;;;;;;4952670;29;20466;-70
2021/11/04 01:45:17;;;;;;;48.80;28.30;;;8.10;99.90;;;;;;4951851;29;20882;-71
2021/11/04 01:47:45;;;;;;;47.60;29.10;;;8.10;99.90;;;;;;4952461;29;20293;-71
2021/11/04 01:50:13;;;;;;;46.60;26.97;;;8.00;99.90;;;;;;4952505;29;20176;-71
2021/11/04 01:52:38;;;;;;;50.23;28.63;;;8.00;99.90;;;;;;4952459;29;20405;-70
2021/11/04 01:55:04;;;;;;;51.27;29.77;;;7.90;99.90;;;;;;4952174;29;20506;-71
2021/11/04 01:57:30;;;;;;;54.40;29.57;;;7.90;99.90;;;;;;4951820;29;20202;-70
2021/11/04 01:59:55;;;;;;;46.77;28.23;;;7.90;99.90;;;;;;4952259;29;20185;-70
2021/11/04 02:02:23;;;;;;;49.80;28.73;;;7.90;99.90;;;;;;4952345;29;20544;-71
2021/11/04 02:05:18;;;;;;;55.50;31.77;;;8.00;99.90;;;;;;4951729;29;20191;-70
2021/11/04 02:07:58;;;;;;;45.83;27.47;;;7.90;99.90;;;;;;4953236;28;20450;-71
2021/11/04 02:10:34;;;;;;;53.10;29.90;;;7.90;99.90;;;;;;4951421;29;20500;-71
2021/11/04 02:13:08;;;;;;;50.97;28.20;;;8.00;99.90;;;;;;4952404;29;20438;-71
2021/11/04 02:15:37;;;;;;;54.10;29.50;;;8.00;99.90;;;;;;4951205;29;20984;-71
2021/11/04 02:18:07;;;;;;;50.27;29.00;;;8.10;99.90;;;;;;4951985;28;20435;-71
2021/11/04 02:21:00;;;;;;;51.40;27.23;;;8.20;99.90;;;;;;4951943;29;20563;-70
2021/11/04 02:24:05;;;;;;;50.53;29.80;;;8.10;99.90;;;;;;4952051;29;20441;-71
2021/11/04 02:26:33;;;;;;;51.25;32.25;;;8.20;99.90;;;;;;4950299;29;20888;-71
2021/11/04 02:28:59;;;;;;;42.00;27.70;;;8.30;99.90;;;;;;4951693;29;20189;-71
2021/11/04 02:31:25;;;;;;;45.73;27.00;;;8.20;99.90;;;;;;4951833;29;20416;-70
2021/11/04 02:33:51;;;;;;;41.50;26.83;;;8.30;99.90;;;;;;4951747;29;20414;-71
2021/11/04 02:36:17;;;;;;;49.23;28.03;;;8.30;99.90;;;;;;4951396;29;20433;-71
2021/11/04 02:38:43;;;;;;;45.30;26.57;;;8.40;99.90;;;;;;4951492;29;20258;-70
2021/11/04 02:41:09;;;;;;;41.23;25.77;;;8.50;99.90;;;;;;4951793;29;20944;-71
2021/11/04 02:43:35;;;;;;;37.77;25.90;;;8.50;99.90;;;;;;4951662;29;20166;-71
2021/11/04 02:46:03;;;;;;;46.93;27.40;;;8.30;99.90;;;;;;4951152;28;20489;-70
2021/11/04 02:48:29;;;;;;;44.57;27.37;;;8.20;99.90;;;;;;4951491;29;20405;-71
2021/11/04 02:50:56;;;;;;;48.50;26.60;;;8.00;99.90;;;;;;4951514;29;20908;-71
2021/11/04 02:53:26;;;;;;;51.47;28.10;;;8.00;99.90;;;;;;4951502;29;20415;-69
2021/11/04 02:55:52;;;;;;;44.30;26.80;;;7.90;99.90;;;;;;4951209;29;20460;-70
2021/11/04 02:58:19;;;;;;;51.03;27.97;;;7.90;99.90;;;;;;4951409;28;20444;-70
2021/11/04 03:00:48;;;;;;;54.70;29.30;;;8.00;99.90;;;;;;4951374;29;20978;-70
2021/11/04 03:03:13;;;;;;;46.90;27.77;;;7.90;99.90;;;;;;4951503;29;20854;-70
2021/11/04 03:05:39;;;;;;;49.00;26.40;;;7.90;99.90;;;;;;4950947;29;20457;-71
2021/11/04 03:08:05;;;;;;;46.93;27.20;;;7.90;99.90;;;;;;4951601;29;20558;-71
2021/11/04 03:10:31;;;;;;;50.70;28.30;;;7.80;99.90;;;;;;4951241;29;20181;-70
2021/11/04 03:12:57;;;;;;;54.17;29.90;;;7.80;99.90;;;;;;4951253;29;20875;-71
2021/11/04 03:15:23;;;;;;;47.13;27.40;;;7.80;99.90;;;;;;4950227;29;20206;-69
2021/11/04 03:17:52;;;;;;;46.90;27.00;;;7.70;99.90;;;;;;4951034;29;20230;-70
2021/11/04 03:20:19;;;;;;;52.80;28.63;;;7.60;99.90;;;;;;4950743;28;20777;-71
2021/11/04 03:22:46;;;;;;;48.47;27.27;;;7.70;99.90;;;;;;4951004;29;20505;-70
2021/11/04 03:25:16;;;;;;;49.30;27.37;;;7.70;99.90;;;;;;4950454;29;20420;-70
2021/11/04 03:27:45;;;;;;;51.37;29.70;;;7.60;99.90;;;;;;4950916;29;20477;-70
2021/11/04 03:30:13;;;;;;;47.57;27.60;;;7.60;99.90;;;;;;4951037;28;20407;-71
2021/11/04 03:32:40;;;;;;;47.00;27.40;;;7.50;99.90;;;;;;4955826;28;20451;-71
2021/11/04 03:35:08;;;;;;;48.30;26.87;;;7.50;99.90;;;;;;4968866;28;20471;-71
2021/11/04 03:37:37;;;;;;;51.47;27.17;;;7.60;99.90;;;;;;4969958;28;20436;-70
2021/11/04 03:40:04;;;;;;;52.07;27.23;;;7.50;99.90;;;;;;4955521;28;20520;-70
2021/11/04 03:42:30;;;;;;;53.27;29.00;;;7.50;99.90;;;;;;4950870;29;20413;-70
2021/11/04 03:44:56;;;;;;;42.10;25.80;;;7.50;99.90;;;;;;4950772;29;20813;-71
2021/11/04 03:47:22;;;;;;;50.53;27.90;;;7.50;99.90;;;;;;4950577;29;20469;-70
2021/11/04 03:49:51;;;;;;;53.50;27.90;;;7.40;99.90;;;;;;4950659;29;20425;-71
2021/11/04 03:52:18;;;;;;;43.47;25.23;;;7.40;99.90;;;;;;4950695;29;20428;-71
2021/11/04 03:54:44;;;;;;;50.63;26.23;;;7.40;99.90;;;;;;4950389;29;20453;-70
2021/11/04 03:57:11;;;;;;;46.40;25.57;;;7.40;99.90;;;;;;4950392;29;20435;-70
2021/11/04 03:59:36;;;;;;;46.70;25.07;;;7.40;99.90;;;;;;4950747;29;20526;-70
2021/11/04 04:02:02;;;;;;;48.93;28.00;;;7.40;99.90;;;;;;4950731;29;20409;-70
2021/11/04 04:04:28;;;;;;;40.47;24.63;;;7.40;99.90;;;;;;4950647;28;20189;-70
2021/11/04 04:06:55;;;;;;;43.23;25.50;;;7.40;99.90;;;;;;4950275;29;20438;-69
2021/11/04 04:09:23;;;;;;;45.40;25.20;;;7.40;99.90;;;;;;4950478;29;20626;-70
2021/11/04 04:11:49;;;;;;;41.73;23.23;;;7.30;99.90;;;;;;4950539;29;20424;-71
2021/11/04 04:14:15;;;;;;;39.30;23.33;;;7.30;99.90;;;;;;4950504;29;20908;-71
2021/11/04 04:16:41;;;;;;;42.97;22.13;;;7.30;99.90;;;;;;4949653;29;20500;-71
2021/11/04 04:19:07;;;;;;;36.40;21.47;;;7.30;99.90;;;;;;4950505;29;20898;-71
2021/11/04 04:21:32;;;;;;;44.53;23.77;;;7.30;99.90;;;;;;4950365;29;20585;-70
2021/11/04 04:23:58;;;;;;;40.80;25.33;;;7.30;99.90;;;;;;4950305;29;20174;-70
2021/11/04 04:26:23;;;;;;;45.37;23.77;;;7.30;99.90;;;;;;4949888;29;20243;-71
2021/11/04 04:28:49;;;;;;;41.87;24.37;;;7.30;99.90;;;;;;4950308;29;20179;-71
2021/11/04 04:31:15;;;;;;;42.90;26.60;;;7.30;99.90;;;;;;4949164;29;20173;-70
2021/11/04 04:33:40;;;;;;;51.27;28.03;;;7.30;99.90;;;;;;4953260;29;20678;-71
2021/11/04 04:36:06;;;;;;;49.17;27.73;;;7.30;99.90;;;;;;4953291;29;20213;-71
2021/11/04 04:38:32;;;;;;;46.93;24.93;;;7.20;99.90;;;;;;4959381;29;20253;-71
2021/11/04 04:40:57;;;;;;;51.20;26.80;;;7.10;99.90;;;;;;4953303;29;20227;-70
2021/11/04 04:43:23;;;;;;;45.10;26.40;;;7.00;99.90;;;;;;4954919;29;20508;-70
2021/11/04 04:45:49;;;;;;;45.23;25.33;;;7.00;99.90;;;;;;4953755;29;20181;-71
2021/11/04 04:48:15;;;;;;;48.13;25.40;;;7.00;99.90;;;;;;4953510;29;20241;-71
2021/11/04 04:50:43;;;;;;;47.50;25.40;;;7.00;99.90;;;;;;4956045;28;20515;-71
2021/11/04 04:53:09;;;;;;;52.73;27.80;;;7.00;99.90;;;;;;4972480;28;20264;-71
2021/11/04 04:55:35;;;;;;;49.87;26.60;;;7.00;99.90;;;;;;4969317;28;20459;-71
2021/11/04 04:58:01;;;;;;;45.73;26.30;;;7.00;99.90;;;;;;4953010;29;20432;-71
2021/11/04 05:00:26;;;;;;;50.40;25.87;;;7.00;99.90;;;;;;4953308;29;20409;-71
2021/11/04 05:02:52;;;;;;;50.33;25.10;;;7.00;99.90;;;;;;4953106;29;20182;-70
2021/11/04 05:05:17;;;;;;;47.90;27.73;;;7.00;99.90;;;;;;4953000;29;20174;-70
2021/11/04 05:07:44;;;;;;;49.40;26.37;;;7.00;99.90;;;;;;4953124;29;20244;-70
2021/11/04 05:10:10;;;;;;;50.87;27.43;;;7.10;99.90;;;;;;4953607;29;20190;-71
2021/11/04 05:12:36;;;;;;;53.90;27.70;;;7.10;99.90;;;;;;4953424;29;20405;-69
2021/11/04 05:15:04;;;;;;;46.33;26.77;;;7.10;99.90;;;;;;4952325;29;20457;-69
2021/11/04 05:17:30;;;;;;;49.83;26.53;;;7.10;99.90;;;;;;4953541;28;20194;-70
2021/11/04 05:19:55;;;;;;;47.40;24.90;;;7.20;99.90;;;;;;4953013;29;20497;-69
2021/11/04 05:22:21;;;;;;;47.13;25.20;;;7.20;99.90;;;;;;4953118;29;20416;-69
2021/11/04 05:24:46;;;;;;;51.80;26.10;;;7.20;99.90;;;;;;4952580;29;20173;-70
2021/11/04 05:27:12;;;;;;;47.33;26.10;;;7.20;99.90;;;;;;4953102;29;20228;-71
2021/11/04 05:29:38;;;;;;;45.87;24.50;;;7.30;99.90;;;;;;4957487;28;20193;-70
2021/11/04 05:32:07;;;;;;;46.60;26.10;;;7.40;99.90;;;;;;4963455;28;20196;-70
2021/11/04 05:34:40;;;;;;;46.90;26.10;;;7.40;99.90;;;;;;4961996;28;20631;-70
2021/11/04 05:37:08;;;;;;;43.60;23.87;;;7.40;99.90;;;;;;4970962;28;20432;-71
2021/11/04 05:39:38;;;;;;;40.57;22.70;;;7.30;99.90;;;;;;4970007;28;20416;-71
2021/11/04 05:42:04;;;;;;;48.37;24.40;;;7.30;99.90;;;;;;4985858;28;20532;-70
2021/11/04 05:44:30;;;;;;;41.77;23.47;;;7.20;99.90;;;;;;4986209;28;20432;-70
2021/11/04 05:46:56;;;;;;;39.37;23.10;;;7.10;99.90;;;;;;4979746;28;20464;-71
2021/11/04 05:49:22;;;;;;;52.50;24.90;;;7.10;99.90;;;;;;4976974;28;20193;-70
2021/11/04 05:51:48;;;;;;;47.10;25.30;;;7.10;99.90;;;;;;4971370;28;20743;-70
2021/11/04 05:54:13;;;;;;;45.90;25.23;;;7.20;99.90;;;;;;4967267;28;20462;-70
2021/11/04 05:56:39;;;;;;;48.13;27.20;;;7.20;99.90;;;;;;4969199;28;20275;-70
2021/11/04 05:59:05;;;;;;;50.50;26.00;;;7.20;99.90;;;;;;4952646;29;20180;-71
2021/11/04 06:01:30;;;;;;;53.00;26.13;;;7.20;99.90;;;;;;4963807;28;20214;-69
2021/11/04 06:03:56;;;;;;;51.60;25.63;;;7.30;99.90;;;;;;4966347;28;20216;-70
2021/11/04 06:06:22;;;;;;;51.83;25.07;;;7.20;99.90;;;;;;4965568;28;20221;-70
2021/11/04 06:08:48;;;;;;;51.37;26.57;;;7.20;99.90;;;;;;4965976;28;20475;-70
2021/11/04 06:11:13;;;;;;;57.60;26.13;;;7.20;99.90;;;;;;4968637;28;22347;-71
2021/11/04 06:13:39;;;;;;;62.63;27.80;;;7.20;99.90;;;;;;4968540;28;20217;-71
2021/11/04 06:16:12;;;;;;;53.23;26.70;;;7.20;99.90;;;;;;4967864;28;20254;-71
2021/11/04 06:18:37;;;;;;;55.47;27.13;;;7.30;99.90;;;;;;4967885;28;20673;-71
2021/11/04 06:21:03;;;;;;;63.20;29.33;;;7.30;99.90;;;;;;4968818;28;20487;-70
2021/11/04 06:23:29;;;;;;;49.10;25.93;;;7.40;99.90;;;;;;4968627;28;20206;-71
2021/11/04 06:25:54;;;;;;;54.20;26.40;;;7.50;99.90;;;;;;4967018;28;20221;-69
2021/11/04 06:28:19;;;;;;;61.70;26.37;;;7.60;99.90;;;;;;4966075;28;20570;-70
2021/11/04 06:30:45;;;;;;;47.87;24.97;;;7.70;99.90;;;;;;4963550;28;20212;-71
2021/11/04 06:33:10;;;;;;;50.63;26.97;;;7.80;99.90;;;;;;4967441;28;20214;-70
2021/11/04 06:35:36;;;;;;;52.93;25.83;;;7.80;99.90;;;;;;4969451;28;20693;-71
2021/11/04 06:38:02;;;;;;;61.17;27.40;;;7.80;99.90;;;;;;4968933;28;20216;-71
2021/11/04 06:40:27;;;;;;;59.80;26.10;;;7.90;99.90;;;;;;4970063;28;20231;-70
2021/11/04 06:42:54;;;;;;;58.03;27.20;;;7.90;99.90;;;;;;4965139;28;20291;-69
2021/11/04 06:45:19;;;;;;;54.47;27.70;;;7.90;99.90;;;;;;4962291;28;20189;-71
2021/11/04 06:47:51;;;;;;;57.87;26.63;;;8.00;99.90;;;;;;4956677;28;21009;-69
2021/11/04 06:50:18;;;;;;;62.03;26.93;;;8.00;99.90;;;;;;4961664;28;20214;-70
2021/11/04 06:53:05;;;;;;;57.53;28.00;;;8.00;99.90;;;;;;4957578;28;20481;-71
2021/11/04 06:55:33;;;;;;;62.13;28.03;;;7.90;99.90;;;;;;5058117;22;20495;-71
2021/11/04 06:58:02;;;;;;;55.50;28.93;;;7.90;99.90;;;;;;5085540;28;20426;-71
2021/11/04 07:00:33;;;;;;;60.07;28.67;;;7.80;99.90;;;;;;5079240;28;20477;-72
2021/11/04 07:03:13;;;;;;;56.60;27.37;;;7.70;99.90;;;;;;5067543;28;20448;-75
2021/11/04 07:05:43;;;;;;;64.17;29.40;;;7.70;99.90;;;;;;5074849;28;20487;-70
2021/11/04 07:08:20;;;;;;;69.33;30.30;;;7.80;99.90;;;;;;5074168;28;20794;-72
2021/11/04 07:10:46;;;;;;;59.93;31.33;;;7.90;99.90;;;;;;5060273;28;20427;-72
2021/11/04 07:13:14;;;;;;;70.23;31.67;;;7.90;99.90;;;;;;5090830;28;20465;-72
2021/11/04 07:15:41;;;;;;;61.13;29.97;;;8.00;99.90;;;;;;5077991;28;20490;-73
2021/11/04 07:18:09;;;;;;;64.63;30.57;;;8.00;99.90;;;;;;5053934;28;20487;-72
2021/11/04 07:20:37;;;;;;;62.67;31.80;;;8.10;99.90;;;;;;5082673;28;20447;-71
2021/11/04 07:23:03;;;;;;;67.43;34.13;;;8.10;99.90;;;;;;5072993;28;20931;-73
2021/11/04 07:25:29;;;;;;;72.20;32.97;;;8.20;99.90;;;;;;5088846;28;20483;-74
2021/11/04 07:28:15;;;;;;;65.40;32.37;;;8.30;99.90;;;;;;5087896;28;20436;-72
2021/11/04 07:30:41;;;;;;;61.73;30.37;;;8.30;99.90;;;;;;5090147;28;20468;-72
2021/11/04 07:33:08;;;;;;;67.67;31.30;;;8.20;99.90;;;;;;5089104;28;20445;-72
2021/11/04 07:35:36;;;;;;;70.03;31.10;;;8.20;99.90;;;;;;5058549;28;20927;-72
2021/11/04 07:38:05;;;;;;;64.00;31.17;;;8.20;99.90;;;;;;5064198;28;20770;-73
2021/11/04 07:40:31;;;;;;;61.50;31.10;;;8.20;99.90;;;;;;5047298;28;20432;-72
2021/11/04 07:42:58;;;;;;;59.77;30.60;;;8.30;99.90;;;;;;5064444;28;20481;-71
2021/11/04 07:45:25;;;;;;;70.90;32.13;;;8.40;99.90;;;;;;5066199;28;20427;-71
2021/11/04 07:47:51;;;;;;;59.27;29.07;;;8.50;99.90;;;;;;5064341;28;20411;-72
2021/11/04 07:50:19;;;;;;;62.07;30.63;;;8.50;99.90;;;;;;5065389;28;20993;-73
2021/11/04 07:52:45;;;;;;;54.97;30.17;;;8.60;99.90;;;;;;5066194;28;20185;-72
2021/11/04 07:55:12;;;;;;;59.67;30.47;;;8.60;99.90;;;;;;5070937;28;20551;-72
2021/11/04 07:57:38;;;;;;;69.10;31.90;;;8.50;99.90;;;;;;5070566;28;21025;-72
2021/11/04 08:00:07;;;;;;;63.67;28.97;;;8.60;99.90;;;;;;5070946;28;20432;-72
2021/11/04 08:02:32;;;;;;;55.17;27.77;;;8.50;99.90;;;;;;5070525;28;20422;-72
2021/11/04 08:04:58;;;;;;;57.73;27.63;;;8.60;99.90;;;;;;5088033;28;20454;-72
2021/11/04 08:07:24;;;;;;;56.90;29.00;;;8.60;99.90;;;;;;5074043;28;20176;-72
2021/11/04 08:09:49;;;;;;;55.43;29.50;;;8.60;99.90;;;;;;5093147;28;20235;-71
2021/11/04 08:12:15;;;;;;;50.27;28.40;;;8.60;99.90;;;;;;5086256;28;20628;-72
2021/11/04 08:14:42;;;;;;;58.77;29.70;;;8.60;99.90;;;;;;5070574;28;20213;-73
2021/11/04 08:17:08;;;;;;;52.70;28.77;;;8.70;99.90;;;;;;5076511;28;20165;-70
2021/11/04 08:19:34;;;;;;;67.03;31.60;;;8.70;99.90;;;;;;5083617;28;20511;-72
2021/11/04 08:22:01;;;;;;;58.50;29.07;;;8.70;99.90;;;;;;5062611;28;20494;-73
2021/11/04 08:24:27;;;;;;;60.30;31.50;;;8.60;99.90;;;;;;5063915;28;20572;-72
2021/11/04 08:26:53;;;;;;;60.30;29.30;;;8.40;99.90;;;;;;5066383;28;20536;-73
2021/11/04 08:29:18;;;;;;;58.77;27.90;;;8.30;99.90;;;;;;5073371;28;20174;-71
2021/11/04 08:31:44;;;;;;;60.97;28.63;;;8.20;99.90;;;;;;5060561;28;20193;-73
2021/11/04 08:34:09;;;;;;;52.77;27.07;;;8.30;99.90;;;;;;5066301;28;20242;-73
2021/11/04 08:36:35;;;;;;;56.37;25.77;;;8.20;99.90;;;;;;5089720;28;20187;-73
2021/11/04 08:39:00;;;;;;;53.80;26.77;;;8.20;99.90;;;;;;5079150;28;20217;-72
2021/11/04 08:41:26;;;;;;;55.30;27.37;;;8.10;99.90;;;;;;5081199;28;20252;-72
2021/11/04 08:43:52;;;;;;;68.13;28.53;;;8.00;99.90;;;;;;5072052;28;20220;-72
2021/11/04 08:46:17;;;;;;;61.33;29.30;;;8.10;99.90;;;;;;5071595;28;20641;-72
2021/11/04 08:48:43;;;;;;;65.63;29.33;;;8.20;99.90;;;;;;5061307;28;20202;-72
2021/11/04 08:51:09;;;;;;;60.10;29.93;;;8.10;99.90;;;;;;5090617;28;20674;-73
2021/11/04 08:53:34;;;;;;;69.97;31.00;;;8.10;99.90;;;;;;5070879;28;20196;-73
2021/11/04 08:56:01;;;;;;;65.87;31.47;;;8.20;99.90;;;;;;5071674;28;20294;-73
2021/11/04 08:58:26;;;;;;;56.13;27.70;;;8.30;99.90;;;;;;5072271;28;20951;-70
2021/11/04 09:00:53;;;;;;;48.13;25.73;;;8.40;99.90;;;;;;5077002;28;20439;-71
2021/11/04 09:03:19;;;;;;;50.90;24.90;;;8.20;99.90;;;;;;5062957;28;20298;-72
2021/11/04 09:05:45;;;;;;;45.70;23.37;;;8.20;99.90;;;;;;5061598;28;20907;-73
2021/11/04 09:08:11;;;;;;;42.90;23.40;;;8.20;99.90;;;;;;5047769;28;20224;-73
2021/11/04 09:10:38;;;;;;;56.10;25.87;;;8.20;99.90;;;;;;5049068;28;21061;-74
2021/11/04 09:13:03;;;;;;;45.03;24.67;;;8.20;99.90;;;;;;5069261;28;20915;-72
2021/11/04 09:15:32;;;;;;;41.40;24.13;;;8.30;99.90;;;;;;5059081;28;20555;-71
2021/11/04 09:17:59;;;;;;;45.43;25.50;;;8.30;99.90;;;;;;5044073;28;20214;-71
2021/11/04 09:20:24;;;;;;;49.00;25.30;;;8.00;99.90;;;;;;5067930;28;20467;-71
2021/11/04 09:22:50;;;;;;;41.13;23.23;;;8.10;99.90;;;;;;5051953;28;20595;-72
2021/11/04 09:25:18;;;;;;;41.23;22.40;;;8.20;99.90;;;;;;5060091;28;20632;-71
2021/11/04 09:27:45;;;;;;;42.63;21.40;;;8.30;99.90;;;;;;5060117;28;20459;-72
2021/11/04 09:30:11;;;;;;;38.03;21.30;;;8.30;99.90;;;;;;5048035;28;20459;-71
2021/11/04 09:32:37;;;;;;;42.43;22.13;;;8.40;99.90;;;;;;5066889;28;20543;-74
2021/11/04 09:35:04;;;;;;;46.03;24.37;;;8.40;99.90;;;;;;5048249;28;20463;-76
2021/11/04 09:37:30;;;;;;;47.67;24.03;;;8.50;99.90;;;;;;5065157;28;20440;-71
2021/11/04 09:39:58;;;;;;;44.73;23.53;;;8.60;99.90;;;;;;5063232;28;20557;-72
2021/11/04 09:42:24;;;;;;;45.57;22.63;;;8.70;99.90;;;;;;5067739;28;20807;-72
2021/11/04 09:44:51;;;;;;;52.43;28.27;;;8.70;99.90;;;;;;5074861;28;20536;-70
2021/11/04 09:47:25;;;;;;;53.33;27.97;;;8.70;99.90;;;;;;5062352;28;21086;-71
2021/11/04 09:49:56;;;;;;;50.50;27.23;;;8.60;99.90;;;;;;5065247;28;20824;-73
2021/11/04 09:52:31;;;;;;;53.67;26.50;;;8.50;99.90;;;;;;5062197;28;20434;-76
2021/11/04 09:54:57;;;;;;;55.13;27.93;;;8.50;99.90;;;;;;5069775;28;20475;-73
2021/11/04 09:57:27;;;;;;;57.03;26.97;;;8.50;99.90;;;;;;5053081;28;20451;-72
2021/11/04 09:59:56;;;;;;;53.03;28.63;;;8.60;99.90;;;;;;5051518;28;20201;-72
2021/11/04 10:02:24;;;;;;;49.43;26.37;;;8.60;99.90;;;;;;5069057;28;20457;-72
2021/11/04 10:04:51;;;;;;;52.33;27.63;;;8.60;99.90;;;;;;5051128;28;20993;-72
2021/11/04 10:07:18;;;;;;;56.40;27.87;;;8.60;99.90;;;;;;5068643;28;20474;-71
2021/11/04 10:09:58;;;;;;;47.43;26.80;;;8.60;99.90;;;;;;5070129;28;20958;-72
2021/11/04 10:12:24;;;;;;;55.07;27.60;;;8.60;99.90;;;;;;5069266;28;20447;-73
2021/11/04 10:14:49;;;;;;;66.67;30.77;;;8.60;99.90;;;;;;5074251;28;20514;-72
2021/11/04 10:17:27;;;;;;;55.07;28.00;;;8.60;99.90;;;;;;5077250;28;20263;-71
2021/11/04 10:19:53;;;;;;;63.97;35.67;;;8.70;99.90;;;;;;5057191;28;20424;-71
2021/11/04 10:22:28;;;;;;;60.33;31.43;;;8.70;99.90;;;;;;5089868;28;20199;-73
2021/11/04 10:24:54;;;;;;;55.03;29.40;;;8.70;99.90;;;;;;5089341;28;20461;-71
2021/11/04 10:27:35;;;;;;;57.33;29.57;;;8.70;99.90;;;;;;5089469;28;20437;-72
2021/11/04 10:30:05;;;;;;;64.57;30.27;;;8.80;99.90;;;;;;5066681;28;20991;-71
2021/11/04 10:32:33;;;;;;;60.70;30.93;;;8.80;99.90;;;;;;5069578;28;20438;-72
2021/11/04 10:35:17;;;;;;;61.80;30.97;;;8.80;99.90;;;;;;5068939;28;20528;-72
2021/11/04 10:37:45;;;;;;;62.80;32.50;;;8.60;99.90;;;;;;5071542;28;20443;-70
2021/11/04 10:40:17;;;;;;;53.43;31.13;;;8.60;99.90;;;;;;5054412;28;20980;-71
2021/11/04 10:42:51;;;;;;;57.90;31.60;;;8.70;99.90;;;;;;5058471;28;20474;-70
2021/11/04 10:45:22;;;;;;;55.40;32.13;;;8.70;99.90;;;;;;5050602;28;20479;-73
2021/11/04 10:47:48;;;;;;;60.57;33.47;;;8.80;99.90;;;;;;5059113;28;20520;-72
2021/11/04 10:50:40;;;;;;;54.57;33.90;;;8.90;99.90;;;;;;5054268;28;20560;-71
2021/11/04 10:53:10;;;;;;;60.13;31.03;;;9.00;99.90;;;;;;5044954;28;20960;-71
2021/11/04 10:55:35;;;;;;;58.73;32.33;;;9.20;99.90;;;;;;5045203;28;20506;-70
2021/11/04 10:58:06;;;;;;;47.67;30.07;;;9.20;99.90;;;;;;5045543;28;20440;-71
2021/11/04 11:00:40;;;;;;;49.30;30.77;;;9.20;99.90;;;;;;5046848;28;20264;-71
2021/11/04 11:03:12;;;;;;;47.13;29.03;;;9.20;99.90;;;;;;5044519;28;21018;-72
2021/11/04 11:05:40;;;;;;;43.87;26.80;;;9.30;99.90;;;;;;5046157;28;20435;-71
2021/11/04 11:08:07;;;;;;;41.43;25.07;;;9.20;99.90;;;;;;5046024;28;20431;-71
2021/11/04 11:10:36;;;;;;;48.17;30.23;;;9.10;99.90;;;;;;5034699;28;20475;-71
2021/11/04 11:13:03;;;;;;;45.27;29.40;;;9.20;99.90;;;;;;5041531;28;20416;-71
2021/11/04 11:15:32;;;;;;;46.40;29.20;;;9.20;99.90;;;;;;5043825;28;20479;-71
2021/11/04 11:17:59;;;;;;;47.13;30.13;;;9.20;99.90;;;;;;5040441;28;20978;-71
2021/11/04 11:20:26;;;;;;;43.87;28.33;;;9.30;99.90;;;;;;5045865;28;20416;-71
2021/11/04 11:22:52;;;;;;;43.77;27.40;;;9.30;99.90;;;;;;5043587;28;20456;-71
2021/11/04 11:25:17;;;;;;;41.97;25.73;;;9.30;99.90;;;;;;5040555;28;20494;-72
2021/11/04 11:27:50;;;;;;;38.73;25.47;;;9.30;99.90;;;;;;5045312;28;20175;-73
2021/11/04 11:30:16;;;;;;;36.70;24.00;;;9.30;99.90;;;;;;5045274;28;20213;-71
2021/11/04 11:32:43;;;;;;;40.00;25.00;;;9.30;99.90;;;;;;5044617;28;20478;-72
2021/11/04 11:35:19;;;;;;;39.03;24.93;;;9.30;99.90;;;;;;5043785;28;20285;-71
2021/11/04 11:37:53;;;;;;;49.83;29.40;;;9.20;99.90;;;;;;5042612;28;20865;-72
2021/11/04 11:40:18;;;;;;;43.70;28.10;;;9.10;99.90;;;;;;5047676;28;20423;-73
2021/11/04 11:43:03;;;;;;;46.37;27.83;;;9.20;99.90;;;;;;5050264;28;20415;-72
2021/11/04 11:45:35;;;;;;;42.03;26.03;;;9.20;99.90;;;;;;5045737;28;20205;-72
2021/11/04 11:48:20;;;;;;;34.77;25.00;;;9.30;99.90;;;;;;5048241;28;20424;-71
2021/11/04 11:50:51;;;;;;;37.70;24.40;;;9.20;99.90;;;;;;5043721;28;20900;-71
2021/11/04 11:53:37;;;;;;;41.53;25.90;;;9.20;99.90;;;;;;5046851;28;20420;-71
2021/11/04 11:56:06;;;;;;;45.17;28.87;;;9.20;99.90;;;;;;5044259;28;20559;-71
2021/11/04 11:58:33;;;;;;;42.23;28.50;;;9.10;99.90;;;;;;5027660;28;21117;-71
2021/11/04 12:01:03;;;;;;;50.30;32.80;;;9.20;99.90;;;;;;5018892;28;20421;-72
2021/11/04 12:03:31;;;;;;;46.17;30.50;;;9.10;99.90;;;;;;5014070;28;20413;-70
2021/11/04 12:05:57;;;;;;;45.33;29.30;;;9.20;99.90;;;;;;5013252;28;20426;-70
2021/11/04 12:08:29;;;;;;;50.63;32.33;;;9.20;99.90;;;;;;5014480;28;20568;-71
2021/11/04 12:10:55;;;;;;;52.00;35.00;;;9.20;99.90;;;;;;5014648;28;20565;-70
2021/11/04 12:13:45;;;;;;;56.33;34.77;;;9.30;99.90;;;;;;5017399;28;20980;-72
2021/11/04 12:16:23;;;;;;;55.90;35.37;;;9.40;99.90;;;;;;5017172;28;20825;-71
2021/11/04 12:18:54;;;;;;;58.60;35.27;;;9.30;99.90;;;;;;5018446;28;20448;-70
2021/11/04 12:21:31;;;;;;;54.20;36.43;;;9.20;99.90;;;;;;5013577;28;20452;-72
2021/11/04 12:24:08;;;;;;;51.70;33.50;;;9.20;99.90;;;;;;5016002;28;20950;-73
2021/11/04 12:26:38;;;;;;;52.87;33.83;;;9.10;99.90;;;;;;5017637;28;20641;-72
2021/11/04 12:29:06;;;;;;;52.13;33.23;;;9.20;99.90;;;;;;5029045;28;20523;-71
2021/11/04 12:31:39;;;;;;;46.97;30.20;;;9.30;99.90;;;;;;5035694;28;20436;-72
2021/11/04 12:34:05;;;;;;;51.67;31.10;;;9.30;99.90;;;;;;5033686;28;20428;-72
2021/11/04 12:36:42;;;;;;;55.73;31.70;;;9.40;99.90;;;;;;5034096;28;20498;-73
2021/11/04 12:39:23;;;;;;;54.50;30.60;;;9.30;99.90;;;;;;5029687;28;20448;-73